Time;durP1;ratioP1;P1;durP2;ratioP2;P2;SDS_P1;SDS_P2;PMS_P1;PMS_P2;Temp;Humidity;BMP_temperature;BMP_pressure;BME280_temperature;BME280_humidity;BME280_pressure;Samples;Min_cycle;Max_cycle;Signal;HPM_P1;HPM_P2
2022/03/22 00:00:51;;;;;;;61.80;35.20;;;6.70;99.90;;;;;;5009573;28;20371;-40
2022/03/22 00:03:19;;;;;;;58.15;31.58;;;6.70;99.90;;;;;;5015833;28;20049;-40
2022/03/22 00:05:47;;;;;;;59.00;33.38;;;6.70;99.90;;;;;;5016323;28;20042;-40
2022/03/22 00:08:13;;;;;;;48.50;29.70;;;6.70;99.90;;;;;;5008011;28;20473;-40
2022/03/22 00:10:40;;;;;;;53.35;32.13;;;6.60;99.90;;;;;;5010719;28;20039;-39
2022/03/22 00:13:07;;;;;;;62.33;36.08;;;6.60;99.90;;;;;;5015748;28;20046;-39
2022/03/22 00:15:34;;;;;;;50.05;31.17;;;6.60;99.90;;;;;;5014670;28;20038;-40
2022/03/22 00:18:01;;;;;;;51.88;31.65;;;6.70;99.90;;;;;;5015127;28;20652;-39
2022/03/22 00:20:27;;;;;;;48.90;30.48;;;6.60;99.90;;;;;;5014593;28;20046;-40
2022/03/22 00:22:56;;;;;;;67.50;36.08;;;6.60;99.90;;;;;;5014018;28;20434;-40
2022/03/22 00:25:23;;;;;;;48.03;31.00;;;6.50;99.90;;;;;;5015741;28;20038;-39
2022/03/22 00:27:53;;;;;;;53.40;32.50;;;6.50;99.90;;;;;;5014070;28;20053;-40
2022/03/22 00:30:21;;;;;;;58.95;34.20;;;6.50;99.90;;;;;;5015372;28;20038;-40
2022/03/22 00:32:48;;;;;;;49.45;33.13;;;6.50;99.90;;;;;;5015201;28;20044;-40
2022/03/22 00:35:18;;;;;;;61.67;34.00;;;6.50;99.90;;;;;;5015272;28;20053;-40
2022/03/22 00:37:46;;;;;;;59.15;34.97;;;6.50;99.90;;;;;;5014410;28;20149;-40
2022/03/22 00:40:16;;;;;;;55.50;32.80;;;6.40;99.90;;;;;;5014925;28;20544;-40
2022/03/22 00:42:46;;;;;;;51.03;32.05;;;6.40;99.90;;;;;;5015272;28;20104;-39
2022/03/22 00:45:15;;;;;;;53.00;33.83;;;6.40;99.90;;;;;;5015690;28;20053;-40
2022/03/22 00:47:43;;;;;;;60.92;36.83;;;6.40;99.90;;;;;;5014949;28;20458;-40
2022/03/22 00:50:10;;;;;;;57.55;33.92;;;6.40;99.90;;;;;;5014905;28;20389;-40
2022/03/22 00:52:36;;;;;;;50.53;30.27;;;6.40;99.90;;;;;;5014960;28;20081;-40
2022/03/22 00:55:05;;;;;;;58.28;36.45;;;6.30;99.90;;;;;;5015206;28;20037;-40
2022/03/22 00:57:33;;;;;;;59.08;33.70;;;6.30;99.90;;;;;;5014496;28;20042;-40
2022/03/22 01:00:02;;;;;;;56.63;35.70;;;6.30;99.90;;;;;;5014664;28;20045;-39
2022/03/22 01:02:29;;;;;;;42.75;27.85;;;6.30;99.90;;;;;;5014315;28;20123;-39
2022/03/22 01:04:56;;;;;;;51.10;32.53;;;6.30;99.90;;;;;;5014245;28;20057;-39
2022/03/22 01:07:22;;;;;;;59.80;35.08;;;6.20;99.90;;;;;;5014610;28;20120;-40
2022/03/22 01:09:50;;;;;;;46.50;31.65;;;6.20;99.90;;;;;;5012544;28;20095;-40
2022/03/22 01:12:17;;;;;;;51.60;30.58;;;6.20;99.90;;;;;;5014872;28;20087;-40
2022/03/22 01:14:45;;;;;;;62.75;37.30;;;6.20;99.90;;;;;;5014518;28;20046;-40
2022/03/22 01:17:11;;;;;;;56.13;31.85;;;6.20;99.90;;;;;;5013241;28;20045;-40
2022/03/22 01:19:39;;;;;;;58.53;34.05;;;6.20;99.90;;;;;;5014558;28;20077;-40
2022/03/22 01:22:06;;;;;;;56.20;33.55;;;6.20;99.90;;;;;;5014533;28;20100;-38
2022/03/22 01:24:33;;;;;;;54.55;32.03;;;6.10;99.90;;;;;;5014676;28;20045;-40
2022/03/22 01:26:59;;;;;;;58.97;35.33;;;6.10;99.90;;;;;;5014199;28;20453;-39
2022/03/22 01:29:26;;;;;;;62.35;36.15;;;6.10;99.90;;;;;;5013409;28;20054;-39
2022/03/22 01:31:55;;;;;;;56.25;35.53;;;6.10;99.90;;;;;;5014222;28;20046;-39
2022/03/22 01:34:21;;;;;;;59.42;35.80;;;6.10;99.90;;;;;;5012934;28;20124;-40
2022/03/22 01:36:48;;;;;;;60.45;36.53;;;6.10;99.90;;;;;;5012651;28;20100;-39
2022/03/22 01:39:15;;;;;;;60.80;36.20;;;6.00;99.90;;;;;;5013460;28;20145;-39
2022/03/22 01:41:41;;;;;;;60.72;36.38;;;6.00;99.90;;;;;;5013182;28;20041;-40
2022/03/22 01:44:08;;;;;;;53.33;32.95;;;6.00;99.90;;;;;;5014629;28;20050;-40
2022/03/22 01:46:36;;;;;;;60.08;36.15;;;5.90;99.90;;;;;;5013624;28;20132;-39
2022/03/22 01:49:04;;;;;;;57.88;33.55;;;5.90;99.90;;;;;;5004158;28;20033;-39
2022/03/22 01:51:32;;;;;;;62.47;36.40;;;5.90;99.90;;;;;;5012863;28;20056;-40
2022/03/22 01:53:58;;;;;;;51.58;32.15;;;5.90;99.90;;;;;;5013280;28;20046;-40
2022/03/22 01:56:25;;;;;;;57.88;34.33;;;5.90;99.90;;;;;;5012904;28;20054;-40
2022/03/22 01:58:55;;;;;;;60.55;35.20;;;5.90;99.90;;;;;;5013930;28;20052;-40
2022/03/22 02:06:53;;;;;;;55.72;32.67;;;5.80;99.90;;;;;;5012939;28;20050;-40
2022/03/22 02:09:20;;;;;;;62.63;36.88;;;5.80;99.90;;;;;;5013898;28;20255;-40
2022/03/22 02:11:47;;;;;;;48.33;31.10;;;5.80;99.90;;;;;;5013795;28;20117;-40
2022/03/22 02:14:13;;;;;;;50.42;31.45;;;5.70;99.90;;;;;;5013669;28;20046;-40
2022/03/22 02:16:40;;;;;;;60.78;36.40;;;5.70;99.90;;;;;;5011184;28;20058;-39
2022/03/22 02:19:10;;;;;;;60.97;36.25;;;5.70;99.90;;;;;;5013776;28;20460;-40
2022/03/22 02:21:37;;;;;;;53.30;32.10;;;5.70;99.90;;;;;;5011527;28;20125;-40
2022/03/22 02:24:06;;;;;;;60.75;36.17;;;5.70;99.90;;;;;;5013469;28;20482;-40
2022/03/22 02:26:32;;;;;;;59.80;36.20;;;5.60;99.90;;;;;;5011418;28;20058;-40
2022/03/22 02:28:59;;;;;;;61.85;35.65;;;5.60;99.90;;;;;;5012945;28;20482;-40
2022/03/22 02:31:27;;;;;;;58.42;34.17;;;5.60;99.90;;;;;;5012326;28;20073;-40
2022/03/22 02:33:54;;;;;;;58.78;35.35;;;5.50;99.90;;;;;;5013326;28;20046;-40
2022/03/22 02:36:21;;;;;;;52.70;33.00;;;5.50;99.90;;;;;;5013076;28;20389;-40
2022/03/22 02:38:47;;;;;;;60.20;35.85;;;5.50;99.90;;;;;;5013344;28;20492;-41
2022/03/22 02:41:17;;;;;;;61.17;37.22;;;5.50;99.90;;;;;;5011816;28;20128;-40
2022/03/22 02:43:44;;;;;;;60.88;36.85;;;5.50;99.90;;;;;;5011686;28;20073;-40
2022/03/22 02:46:10;;;;;;;58.95;35.75;;;5.50;99.90;;;;;;5007616;28;20042;-40
2022/03/22 02:48:37;;;;;;;59.35;34.30;;;5.50;99.90;;;;;;5012388;28;20060;-40
2022/03/22 02:51:04;;;;;;;56.20;35.10;;;5.50;99.90;;;;;;5013049;28;20045;-40
2022/03/22 02:53:30;;;;;;;63.47;37.08;;;5.40;99.90;;;;;;5012194;28;20136;-40
2022/03/22 02:55:57;;;;;;;52.72;31.20;;;5.40;99.90;;;;;;5012581;28;20042;-40
2022/03/22 02:58:31;;;;;;;62.47;36.58;;;5.40;99.90;;;;;;5012151;28;20056;-40
2022/03/22 03:00:58;;;;;;;63.28;37.53;;;5.40;99.90;;;;;;5008267;28;20081;-40
2022/03/22 03:03:24;;;;;;;62.97;37.65;;;5.40;99.90;;;;;;5011927;28;20042;-40
2022/03/22 03:05:51;;;;;;;59.63;37.63;;;5.30;99.90;;;;;;5013178;28;20389;-40
2022/03/22 03:08:18;;;;;;;69.85;39.78;;;5.30;99.90;;;;;;5011894;28;20561;-40
2022/03/22 03:10:44;;;;;;;65.30;38.28;;;5.30;99.90;;;;;;5012432;28;20042;-39
2022/03/22 03:13:11;;;;;;;59.33;36.45;;;5.30;99.90;;;;;;5012400;28;20054;-39
2022/03/22 03:15:39;;;;;;;63.15;38.42;;;5.30;99.90;;;;;;5011612;28;20064;-39
2022/03/22 03:18:06;;;;;;;60.90;34.78;;;5.30;99.90;;;;;;5012379;28;20406;-39
2022/03/22 03:20:33;;;;;;;59.60;38.45;;;5.30;99.90;;;;;;5012173;28;20046;-40
2022/03/22 03:23:00;;;;;;;64.15;40.70;;;5.30;99.90;;;;;;5012365;28;20046;-39
2022/03/22 03:25:28;;;;;;;69.20;40.22;;;5.30;99.90;;;;;;5010679;28;20050;-39
2022/03/22 03:27:55;;;;;;;57.65;35.78;;;5.30;99.90;;;;;;5012535;28;20129;-40
2022/03/22 03:30:21;;;;;;;58.22;35.75;;;5.30;99.90;;;;;;5012646;28;20041;-41
2022/03/22 03:32:49;;;;;;;58.67;37.08;;;5.30;99.90;;;;;;5011805;28;20104;-40
2022/03/22 03:35:16;;;;;;;59.38;35.70;;;5.30;99.90;;;;;;5016370;28;20045;-40
2022/03/22 03:37:43;;;;;;;63.90;39.22;;;5.20;99.90;;;;;;5016704;28;20124;-41
2022/03/22 03:40:11;;;;;;;56.20;35.58;;;5.20;99.90;;;;;;5015280;28;20057;-40
2022/03/22 03:42:42;;;;;;;61.42;38.58;;;5.20;99.90;;;;;;5011947;28;20120;-40
2022/03/22 03:47:56;;;;;;;64.80;38.80;;;5.20;99.90;;;;;;5031911;28;20139;-40
2022/03/22 03:50:23;;;;;;;60.90;39.33;;;5.20;99.90;;;;;;5016235;28;20136;-40
2022/03/22 03:52:49;;;;;;;60.45;36.92;;;5.20;99.90;;;;;;5015728;28;20045;-40
2022/03/22 03:55:16;;;;;;;63.95;37.75;;;5.20;99.90;;;;;;5016376;28;20046;-41
2022/03/22 03:57:44;;;;;;;62.38;39.28;;;5.10;99.90;;;;;;5016028;28;20786;-40
2022/03/22 04:00:12;;;;;;;68.20;40.22;;;5.10;99.90;;;;;;5016397;28;20499;-40
2022/03/22 04:02:40;;;;;;;61.08;38.25;;;5.10;99.90;;;;;;5007664;28;20038;-41
2022/03/22 04:05:10;;;;;;;56.53;37.25;;;5.10;99.90;;;;;;5010345;28;20525;-39
2022/03/22 04:07:37;;;;;;;68.00;39.70;;;5.10;99.90;;;;;;5014974;28;20137;-40
2022/03/22 04:10:04;;;;;;;60.50;38.15;;;5.10;99.90;;;;;;5016073;28;20050;-40
2022/03/22 04:12:31;;;;;;;66.75;38.53;;;5.10;99.90;;;;;;5015323;28;20068;-40
2022/03/22 04:14:57;;;;;;;65.85;40.95;;;5.10;99.90;;;;;;5015496;28;20473;-40
2022/03/22 04:17:27;;;;;;;65.47;39.03;;;5.10;99.90;;;;;;5014672;28;20093;-39
2022/03/22 04:19:54;;;;;;;67.55;37.92;;;5.10;99.90;;;;;;5015507;28;20046;-39
2022/03/22 04:22:23;;;;;;;57.13;38.22;;;5.10;99.90;;;;;;5015542;28;20045;-39
2022/03/22 04:24:50;;;;;;;60.85;37.60;;;5.10;99.90;;;;;;5014657;28;20395;-39
2022/03/22 04:32:45;;;;;;;63.95;38.28;;;5.10;99.90;;;;;;5013575;28;20378;-40
2022/03/22 04:35:13;;;;;;;55.25;34.65;;;5.10;99.90;;;;;;5014258;28;20128;-40
2022/03/22 04:37:41;;;;;;;60.80;38.83;;;5.00;99.90;;;;;;5006019;28;20064;-40
2022/03/22 04:40:10;;;;;;;63.45;39.97;;;5.00;99.90;;;;;;5002812;28;20049;-40
2022/03/22 04:42:36;;;;;;;62.80;40.20;;;5.00;99.90;;;;;;5013957;28;20077;-40
2022/03/22 04:45:03;;;;;;;60.35;39.83;;;5.10;99.90;;;;;;5014080;28;20152;-40
2022/03/22 04:47:30;;;;;;;61.00;37.25;;;5.00;99.90;;;;;;5014682;28;20375;-39
2022/03/22 04:49:57;;;;;;;64.95;41.45;;;4.90;99.90;;;;;;5013457;28;20137;-39
2022/03/22 04:57:54;;;;;;;69.28;41.75;;;4.90;99.90;;;;;;5024186;28;20038;-39
2022/03/22 05:00:21;;;;;;;64.82;41.05;;;4.90;99.90;;;;;;5012301;28;20045;-39
2022/03/22 05:02:48;;;;;;;71.22;41.60;;;4.90;99.90;;;;;;5014385;28;20137;-39
2022/03/22 05:05:15;;;;;;;67.43;40.65;;;4.90;99.90;;;;;;5013889;28;20474;-40
2022/03/22 05:07:41;;;;;;;59.03;38.20;;;4.90;99.90;;;;;;5014783;28;20042;-40
2022/03/22 05:10:11;;;;;;;68.00;40.10;;;4.90;99.90;;;;;;5004281;28;20471;-40
2022/03/22 05:12:40;;;;;;;62.80;38.92;;;4.90;99.90;;;;;;5004747;28;20058;-40
2022/03/22 05:15:09;;;;;;;62.75;40.75;;;4.90;99.90;;;;;;5007327;28;20049;-40
2022/03/22 05:17:36;;;;;;;69.20;40.65;;;4.90;99.90;;;;;;5014289;28;20073;-40
2022/03/22 05:20:04;;;;;;;65.13;40.63;;;4.90;99.90;;;;;;5013601;28;20052;-40
2022/03/22 05:22:31;;;;;;;65.30;40.13;;;5.00;99.90;;;;;;5013213;28;20042;-40
2022/03/22 05:24:58;;;;;;;64.05;40.13;;;5.00;99.90;;;;;;5006558;28;20052;-40
2022/03/22 05:27:27;;;;;;;64.40;39.95;;;5.00;99.90;;;;;;5005814;28;20429;-40
2022/03/22 05:29:53;;;;;;;62.50;39.10;;;5.00;99.90;;;;;;5009670;28;20124;-41
2022/03/22 05:32:20;;;;;;;64.88;39.58;;;5.00;99.90;;;;;;5014137;28;20045;-40
2022/03/22 05:34:47;;;;;;;74.55;41.63;;;4.90;99.90;;;;;;5006712;28;20474;-41
2022/03/22 05:37:14;;;;;;;64.65;41.17;;;4.90;99.90;;;;;;5008767;28;20060;-39
2022/03/22 05:39:41;;;;;;;64.35;39.72;;;5.00;99.90;;;;;;5007781;28;20050;-39
2022/03/22 05:42:08;;;;;;;68.53;42.15;;;4.90;99.90;;;;;;5009789;28;20444;-39
2022/03/22 05:44:36;;;;;;;67.57;40.80;;;5.00;99.90;;;;;;5010071;28;20117;-40
2022/03/22 05:47:03;;;;;;;66.95;41.38;;;5.00;99.90;;;;;;5013377;28;20484;-39
2022/03/22 05:49:30;;;;;;;68.05;41.17;;;5.00;99.90;;;;;;5012566;28;20116;-39
2022/03/22 05:51:57;;;;;;;59.15;37.28;;;5.00;99.90;;;;;;5014243;28;20038;-39
2022/03/22 05:54:24;;;;;;;64.78;40.42;;;5.00;99.90;;;;;;5013658;28;20045;-40
2022/03/22 05:56:51;;;;;;;62.28;39.58;;;5.00;99.90;;;;;;5012942;28;20046;-39
2022/03/22 05:59:17;;;;;;;67.38;41.03;;;5.00;99.90;;;;;;5012940;28;20052;-39
2022/03/22 06:01:46;;;;;;;67.15;40.50;;;5.00;99.90;;;;;;5012486;28;20128;-39
2022/03/22 06:04:12;;;;;;;65.47;41.90;;;5.00;99.90;;;;;;5011676;28;20050;-40
2022/03/22 06:06:39;;;;;;;67.80;41.17;;;5.00;99.90;;;;;;5010806;28;20124;-40
2022/03/22 06:09:06;;;;;;;66.75;41.55;;;5.00;99.90;;;;;;5007605;28;20060;-40
2022/03/22 06:11:35;;;;;;;69.45;40.90;;;5.00;99.90;;;;;;4998564;28;20054;-39
2022/03/22 06:14:02;;;;;;;68.95;42.05;;;5.00;99.90;;;;;;4993116;28;20347;-39
2022/03/22 06:16:29;;;;;;;63.58;39.63;;;5.00;99.90;;;;;;5001680;28;20050;-39
2022/03/22 06:18:57;;;;;;;65.78;41.40;;;5.00;99.90;;;;;;4994549;28;20119;-40
2022/03/22 06:21:24;;;;;;;64.40;41.65;;;5.10;99.90;;;;;;4991945;28;20050;-40
2022/03/22 06:23:51;;;;;;;64.63;41.35;;;5.10;99.90;;;;;;4993326;28;20054;-40
2022/03/22 06:26:17;;;;;;;68.78;41.72;;;5.10;99.90;;;;;;4992184;28;20050;-40
2022/03/22 06:28:44;;;;;;;69.03;39.47;;;5.10;99.90;;;;;;4993235;28;20081;-40
2022/03/22 06:31:11;;;;;;;68.93;41.33;;;5.10;99.90;;;;;;5004715;28;20050;-40
2022/03/22 06:33:38;;;;;;;71.63;44.42;;;5.20;99.90;;;;;;5012693;28;20478;-40
2022/03/22 06:36:08;;;;;;;64.53;42.88;;;5.20;99.90;;;;;;5012323;28;20096;-40
2022/03/22 06:38:35;;;;;;;69.55;42.15;;;5.30;99.90;;;;;;5011389;28;20141;-40
2022/03/22 06:41:02;;;;;;;70.35;41.53;;;5.40;99.90;;;;;;5011060;28;20061;-39
2022/03/22 06:43:29;;;;;;;77.97;43.58;;;5.40;99.90;;;;;;5011380;28;20046;-40
2022/03/22 06:45:57;;;;;;;66.50;41.17;;;5.50;99.90;;;;;;5012525;28;20050;-40
2022/03/22 06:48:23;;;;;;;69.50;41.03;;;5.60;99.90;;;;;;5011599;28;20060;-40
2022/03/22 06:50:51;;;;;;;65.60;41.55;;;5.60;99.90;;;;;;5011586;28;20057;-40
2022/03/22 06:53:19;;;;;;;65.40;40.30;;;5.70;99.90;;;;;;5012298;28;20094;-40
2022/03/22 06:55:46;;;;;;;65.93;40.85;;;5.80;99.90;;;;;;5012165;28;20124;-40
2022/03/22 06:58:14;;;;;;;64.35;39.05;;;5.90;99.90;;;;;;5010560;28;20072;-42
2022/03/22 07:00:41;;;;;;;65.22;39.78;;;5.90;99.90;;;;;;5000230;28;20046;-39
2022/03/22 07:03:08;;;;;;;68.82;40.42;;;6.00;99.90;;;;;;4989551;28;20046;-39
2022/03/22 07:05:35;;;;;;;64.57;40.65;;;6.10;99.90;;;;;;4990244;28;20130;-39
2022/03/22 07:08:01;;;;;;;65.07;41.60;;;6.20;99.90;;;;;;5010446;28;20116;-39
2022/03/22 07:10:31;;;;;;;67.85;40.58;;;6.30;99.90;;;;;;5010743;28;20046;-39
2022/03/22 07:12:58;;;;;;;69.63;39.88;;;6.40;99.90;;;;;;5006358;28;20052;-39
2022/03/22 07:15:28;;;;;;;65.03;39.13;;;6.60;99.90;;;;;;5012156;28;20437;-40
2022/03/22 07:17:55;;;;;;;68.75;37.97;;;6.70;99.90;;;;;;5009892;28;20084;-40
2022/03/22 07:20:22;;;;;;;63.97;38.30;;;6.80;99.90;;;;;;5007292;28;20081;-40
2022/03/22 07:22:48;;;;;;;68.68;39.63;;;6.90;99.90;;;;;;5011694;28;20129;-41
2022/03/22 07:25:15;;;;;;;61.75;38.10;;;7.10;99.90;;;;;;5010723;28;20041;-40
2022/03/22 07:27:44;;;;;;;62.20;38.22;;;7.20;99.90;;;;;;5011664;28;20125;-40
2022/03/22 07:30:11;;;;;;;68.18;38.00;;;7.40;99.90;;;;;;5011502;28;20104;-40
2022/03/22 07:32:38;;;;;;;61.97;38.05;;;7.50;99.90;;;;;;5011073;28;20389;-40
2022/03/22 07:35:06;;;;;;;61.95;36.25;;;7.60;99.90;;;;;;5011821;28;20384;-40
2022/03/22 07:37:34;;;;;;;62.40;38.42;;;7.70;99.90;;;;;;5011398;28;20487;-40
2022/03/22 07:40:01;;;;;;;61.70;37.55;;;7.90;99.90;;;;;;5011440;28;20049;-40
2022/03/22 07:42:29;;;;;;;57.67;37.25;;;8.00;99.90;;;;;;5009675;28;20481;-40
2022/03/22 07:44:57;;;;;;;64.20;36.65;;;8.30;99.90;;;;;;5010565;28;20061;-41
2022/03/22 07:47:24;;;;;;;56.17;36.83;;;8.30;99.90;;;;;;5011698;28;20132;-43
2022/03/22 07:55:19;;;;;;;59.63;33.85;;;8.80;99.90;;;;;;5012039;28;20038;-40
2022/03/22 07:57:46;;;;;;;54.42;34.83;;;8.90;99.90;;;;;;5011777;28;20058;-39
2022/03/22 08:00:15;;;;;;;55.58;35.03;;;9.10;99.90;;;;;;5011917;28;20056;-41
2022/03/22 08:02:51;;;;;;;56.15;35.00;;;9.30;99.90;;;;;;5011467;28;20462;-41
2022/03/22 08:05:18;;;;;;;53.17;33.47;;;9.50;99.90;;;;;;5011684;28;21160;-40
2022/03/22 08:07:44;;;;;;;55.80;33.22;;;9.60;99.90;;;;;;5011502;28;20046;-41
2022/03/22 08:10:11;;;;;;;54.70;31.75;;;9.80;99.90;;;;;;5011857;28;20136;-40
2022/03/22 08:12:38;;;;;;;52.80;33.35;;;10.00;99.90;;;;;;5011263;28;20053;-40
2022/03/22 08:15:06;;;;;;;55.90;32.67;;;10.10;99.40;;;;;;5011535;28;20140;-39
2022/03/22 08:17:34;;;;;;;51.80;31.65;;;10.20;99.20;;;;;;5010151;28;20056;-39
2022/03/22 08:20:00;;;;;;;49.20;31.90;;;10.40;98.90;;;;;;5012378;28;20082;-40
2022/03/22 08:22:27;;;;;;;51.10;31.25;;;10.50;98.60;;;;;;5014082;28;20132;-40
2022/03/22 08:24:54;;;;;;;51.67;32.78;;;10.70;98.10;;;;;;5014856;28;20478;-40
2022/03/22 08:27:20;;;;;;;50.38;31.63;;;10.80;97.60;;;;;;5015063;28;20050;-40
2022/03/22 08:29:47;;;;;;;46.42;29.80;;;11.00;97.30;;;;;;5013823;28;20068;-39
2022/03/22 08:32:14;;;;;;;52.38;30.80;;;11.10;96.50;;;;;;5014775;28;20537;-39
2022/03/22 08:34:42;;;;;;;45.38;28.95;;;11.20;95.80;;;;;;5014503;28;20054;-40
2022/03/22 08:37:12;;;;;;;48.78;29.90;;;11.40;95.50;;;;;;5014947;28;20049;-39
2022/03/22 08:39:39;;;;;;;50.13;29.38;;;11.50;95.40;;;;;;5013677;28;20381;-41
2022/03/22 08:42:06;;;;;;;59.95;29.45;;;11.70;94.40;;;;;;5013746;28;20474;-40
2022/03/22 08:44:33;;;;;;;52.08;28.77;;;11.80;94.30;;;;;;5014569;28;20050;-41
2022/03/22 08:47:01;;;;;;;46.30;27.65;;;12.00;93.80;;;;;;5013382;28;20132;-42
2022/03/22 08:49:28;;;;;;;46.25;28.75;;;12.20;92.90;;;;;;5013668;28;20041;-41
2022/03/22 08:51:56;;;;;;;44.85;28.42;;;12.30;92.00;;;;;;5014663;28;20052;-41
2022/03/22 08:54:22;;;;;;;45.40;27.98;;;12.40;91.70;;;;;;5013659;28;20056;-41
2022/03/22 08:56:49;;;;;;;44.13;29.00;;;12.50;91.40;;;;;;5013228;28;20116;-42
2022/03/22 08:59:16;;;;;;;48.75;27.52;;;12.60;90.70;;;;;;5014477;28;20105;-41
2022/03/22 09:01:44;;;;;;;49.25;29.73;;;12.70;90.30;;;;;;5014193;28;20088;-41
2022/03/22 09:06:56;;;;;;;48.00;29.75;;;13.00;90.60;;;;;;5012903;28;20037;-40
2022/03/22 09:09:24;;;;;;;50.65;28.13;;;13.20;90.50;;;;;;5012651;28;20042;-41
2022/03/22 09:11:50;;;;;;;46.47;28.88;;;13.40;88.70;;;;;;5014181;28;20038;-41
2022/03/22 09:14:17;;;;;;;40.83;27.17;;;13.60;87.60;;;;;;5014231;28;20492;-42
2022/03/22 09:16:44;;;;;;;48.20;28.30;;;13.70;86.30;;;;;;5010983;28;20052;-41
2022/03/22 09:19:11;;;;;;;45.95;27.20;;;13.80;85.20;;;;;;5013662;28;20049;-41
2022/03/22 09:21:37;;;;;;;45.28;28.33;;;14.00;84.60;;;;;;5013751;28;20052;-41
2022/03/22 09:24:07;;;;;;;43.72;28.35;;;14.10;82.90;;;;;;5013209;28;20125;-40
2022/03/22 09:26:33;;;;;;;42.22;27.55;;;14.30;82.20;;;;;;5014466;28;20132;-40
2022/03/22 09:29:01;;;;;;;45.47;27.45;;;14.40;83.10;;;;;;5013541;28;20144;-41
2022/03/22 09:31:28;;;;;;;46.33;26.75;;;14.60;80.80;;;;;;5013838;28;20050;-40
2022/03/22 09:33:56;;;;;;;41.45;25.38;;;14.70;80.60;;;;;;5013710;28;20042;-41
2022/03/22 09:36:23;;;;;;;47.25;27.35;;;14.90;79.10;;;;;;5013384;28;20132;-40
2022/03/22 09:38:50;;;;;;;39.83;25.13;;;15.00;79.70;;;;;;5013116;28;20085;-41
2022/03/22 09:41:18;;;;;;;43.03;25.38;;;15.20;78.00;;;;;;5013164;28;20509;-40
2022/03/22 09:43:46;;;;;;;39.97;25.02;;;15.30;76.60;;;;;;5013930;28;20046;-40
2022/03/22 09:46:13;;;;;;;43.65;26.83;;;15.40;76.10;;;;;;5014240;28;20045;-41
2022/03/22 09:48:40;;;;;;;38.33;24.25;;;15.60;75.80;;;;;;5013022;28;20042;-41
2022/03/22 09:53:52;;;;;;;42.60;26.48;;;15.90;74.20;;;;;;5013941;28;20054;-40
2022/03/22 09:56:21;;;;;;;46.25;27.10;;;16.00;72.40;;;;;;5012974;28;20081;-40
2022/03/22 09:58:48;;;;;;;43.78;27.02;;;16.10;72.20;;;;;;5014117;28;20054;-40
2022/03/22 10:01:15;;;;;;;40.63;27.00;;;16.20;72.70;;;;;;5012495;28;20501;-41
2022/03/22 10:03:41;;;;;;;41.63;27.10;;;16.20;72.70;;;;;;5012569;28;20076;-41
2022/03/22 10:06:09;;;;;;;42.85;26.63;;;16.40;72.50;;;;;;5013761;28;20125;-41
2022/03/22 10:08:37;;;;;;;45.03;26.80;;;16.50;71.50;;;;;;5012567;28;20050;-40
2022/03/22 10:11:04;;;;;;;44.42;26.50;;;16.70;71.00;;;;;;5013510;28;20545;-41
2022/03/22 10:13:35;;;;;;;45.45;25.58;;;16.80;71.20;;;;;;5013565;28;20128;-41
2022/03/22 10:16:02;;;;;;;40.30;26.38;;;16.80;69.70;;;;;;5012785;28;20042;-39
2022/03/22 10:18:29;;;;;;;39.10;26.08;;;16.90;69.40;;;;;;5012882;28;20425;-41
2022/03/22 10:21:00;;;;;;;39.60;26.38;;;17.00;68.70;;;;;;4993619;28;20089;-41
2022/03/22 10:23:27;;;;;;;38.80;26.35;;;17.10;68.60;;;;;;4993637;28;20133;-43
2022/03/22 10:26:02;;;;;;;39.88;25.63;;;17.20;68.90;;;;;;4995875;28;20133;-41
2022/03/22 10:28:29;;;;;;;40.10;25.95;;;17.30;68.60;;;;;;5013058;28;20133;-41
2022/03/22 10:30:57;;;;;;;37.60;26.90;;;17.50;69.00;;;;;;5012587;28;20560;-40
2022/03/22 10:33:24;;;;;;;41.08;26.95;;;17.60;68.60;;;;;;5012998;28;20128;-41
2022/03/22 10:35:51;;;;;;;40.05;27.83;;;17.70;68.70;;;;;;5012481;28;20557;-42
2022/03/22 10:38:19;;;;;;;40.47;26.55;;;17.80;68.00;;;;;;5012623;28;20088;-41
2022/03/22 10:40:46;;;;;;;38.65;26.05;;;17.90;67.80;;;;;;5012590;28;20133;-42
2022/03/22 10:43:15;;;;;;;40.67;27.02;;;17.90;66.80;;;;;;5012790;28;20048;-41
2022/03/22 10:45:43;;;;;;;38.75;26.25;;;18.00;66.50;;;;;;5011639;28;20064;-43
2022/03/22 10:48:11;;;;;;;40.47;27.52;;;18.00;65.80;;;;;;5011962;28;20354;-44
2022/03/22 10:50:38;;;;;;;37.20;26.02;;;18.00;65.30;;;;;;5012954;28;20454;-42
2022/03/22 10:53:04;;;;;;;42.83;26.00;;;18.10;64.90;;;;;;5012162;28;20077;-42
2022/03/22 10:55:31;;;;;;;40.17;26.33;;;18.20;64.30;;;;;;5004523;28;20132;-42
2022/03/22 10:58:00;;;;;;;38.35;26.30;;;18.20;63.70;;;;;;5011381;28;20080;-42
2022/03/22 11:00:27;;;;;;;36.97;24.10;;;18.30;63.70;;;;;;5012477;28;20386;-43
2022/03/22 11:02:55;;;;;;;37.50;24.15;;;18.40;62.80;;;;;;5012040;28;20044;-43
2022/03/22 11:05:24;;;;;;;41.65;25.23;;;18.50;63.80;;;;;;5003092;28;20137;-40
2022/03/22 11:07:51;;;;;;;41.15;25.10;;;18.60;61.50;;;;;;4992485;28;20121;-40
2022/03/22 11:10:19;;;;;;;44.38;26.25;;;18.70;62.60;;;;;;4989625;28;20058;-41
2022/03/22 11:12:45;;;;;;;37.90;26.05;;;18.80;62.40;;;;;;4992745;28;20460;-41
2022/03/22 11:15:13;;;;;;;41.80;24.33;;;18.90;61.50;;;;;;5002741;28;20046;-40
2022/03/22 11:17:40;;;;;;;39.95;25.63;;;18.90;61.00;;;;;;5010698;28;20141;-41
2022/03/22 11:20:08;;;;;;;38.30;25.70;;;19.00;60.70;;;;;;5012010;28;20128;-41
2022/03/22 11:22:36;;;;;;;40.45;26.02;;;19.10;60.10;;;;;;5011148;28;20042;-41
2022/03/22 11:25:08;;;;;;;39.00;26.50;;;19.20;61.00;;;;;;5012448;28;20139;-41
2022/03/22 11:27:35;;;;;;;39.10;25.35;;;19.40;60.10;;;;;;5012211;28;20396;-43
2022/03/22 11:30:03;;;;;;;36.83;24.58;;;19.50;60.40;;;;;;5012126;28;20042;-43
2022/03/22 11:35:14;;;;;;;43.85;25.13;;;19.70;59.10;;;;;;5011723;28;20046;-42
2022/03/22 11:37:42;;;;;;;41.63;26.75;;;19.70;59.00;;;;;;5011264;28;20133;-42
2022/03/22 11:43:01;;;;;;;45.00;26.42;;;19.90;56.40;;;;;;5011622;28;20478;-42
2022/03/22 11:45:28;;;;;;;38.78;25.40;;;20.00;58.20;;;;;;5011749;28;20046;-48
2022/03/22 11:47:55;;;;;;;44.53;26.23;;;20.10;58.00;;;;;;5012082;28;20052;-43
2022/03/22 11:50:22;;;;;;;37.45;24.98;;;20.20;57.40;;;;;;5011265;28;20060;-41
2022/03/22 11:52:55;;;;;;;41.83;27.23;;;20.20;57.40;;;;;;5011681;28;20125;-42
2022/03/22 11:55:22;;;;;;;39.50;26.10;;;20.20;57.00;;;;;;5013590;28;20048;-43
2022/03/22 11:57:50;;;;;;;47.53;27.67;;;20.30;57.90;;;;;;5015800;28;20065;-40
2022/03/22 12:00:18;;;;;;;41.47;26.75;;;20.50;57.10;;;;;;5014506;28;20056;-42
2022/03/22 12:02:47;;;;;;;43.45;27.10;;;20.60;57.50;;;;;;5014810;28;20106;-41
2022/03/22 12:05:15;;;;;;;40.78;25.40;;;20.70;57.40;;;;;;5015540;28;20386;-42
2022/03/22 12:07:42;;;;;;;39.55;25.27;;;20.80;56.70;;;;;;5014617;28;20054;-41
2022/03/22 12:10:11;;;;;;;38.55;26.20;;;20.90;56.20;;;;;;5015511;28;20050;-41
2022/03/22 12:12:38;;;;;;;43.38;26.75;;;21.00;55.00;;;;;;5015456;28;20049;-41
2022/03/22 12:15:07;;;;;;;50.75;27.10;;;20.90;54.70;;;;;;5015222;28;20065;-42
2022/03/22 12:17:33;;;;;;;42.50;26.48;;;20.90;54.60;;;;;;5015462;28;20456;-41
2022/03/22 12:20:00;;;;;;;38.92;25.85;;;21.00;54.50;;;;;;5014438;28;20112;-41
2022/03/22 12:22:27;;;;;;;41.20;25.17;;;21.00;54.30;;;;;;5015347;28;20120;-41
2022/03/22 12:24:57;;;;;;;35.60;24.67;;;21.10;53.40;;;;;;5015276;28;20541;-42
2022/03/22 12:27:25;;;;;;;41.60;26.65;;;21.20;54.40;;;;;;5015067;28;20500;-43
2022/03/22 12:29:52;;;;;;;39.95;25.17;;;21.20;52.50;;;;;;5014252;28;20052;-46
2022/03/22 12:32:21;;;;;;;40.05;24.70;;;21.20;53.00;;;;;;5012046;28;20038;-41
2022/03/22 12:34:48;;;;;;;41.08;24.52;;;21.30;52.70;;;;;;4994262;28;20386;-41
2022/03/22 12:37:15;;;;;;;38.72;25.95;;;21.30;51.80;;;;;;4994383;28;20104;-46
2022/03/22 12:39:42;;;;;;;40.83;25.05;;;21.40;51.40;;;;;;4994228;28;20571;-43
2022/03/22 12:42:12;;;;;;;43.55;26.25;;;21.40;51.70;;;;;;4995166;28;20101;-43
2022/03/22 12:44:40;;;;;;;41.90;25.63;;;21.50;51.30;;;;;;4993884;28;20046;-42
2022/03/22 12:47:08;;;;;;;39.28;23.73;;;21.50;51.10;;;;;;4994230;28;20572;-42
2022/03/22 12:49:35;;;;;;;42.63;24.58;;;21.60;52.20;;;;;;4994191;28;20058;-44
2022/03/22 12:52:02;;;;;;;44.00;26.73;;;21.70;50.80;;;;;;4995104;28;20133;-42
2022/03/22 12:54:33;;;;;;;39.97;25.30;;;21.70;50.30;;;;;;4993768;28;20081;-42
2022/03/22 12:57:01;;;;;;;39.45;24.17;;;21.70;50.00;;;;;;4995704;28;20056;-41
2022/03/22 12:59:28;;;;;;;39.70;24.10;;;21.70;49.70;;;;;;5013859;28;20037;-41
2022/03/22 13:01:57;;;;;;;35.80;21.83;;;21.70;49.60;;;;;;5014585;28;20060;-42
2022/03/22 13:04:24;;;;;;;37.10;22.67;;;21.70;50.80;;;;;;5014367;28;20046;-43
2022/03/22 13:06:56;;;;;;;36.85;22.10;;;21.90;50.30;;;;;;5013246;28;20089;-45
2022/03/22 13:12:10;;;;;;;39.75;23.02;;;21.80;48.70;;;;;;5014437;28;20489;-41